Aviation Digital Data Service (ADDS)

Output produced by METARs form (1349 UTC 13 December 2019)
found at http://www.aviationweather.gov/metar/data/
 
METAR text: KABQ 131252Z 15004KT 10SM FEW025 01/M04 A3014 RMK AO2 SLP196 FU FEW025 T00061039
Conditions at: KABQ (ALBUQUERQUE , NM, US) observed 1252 UTC 13 December 2019
Temperature: 0.6°C (33°F)
Dewpoint: -3.9°C (25°F) [RH = 72%]
Pressure (altimeter): 30.14 inches Hg (1020.7 mb)
[Sea-level pressure: 1019.6 mb]
Winds: from the SSE (150 degrees) at 5 MPH (4 knots; 2.1 m/s)
Visibility: 10 or more miles (16+ km)
Ceiling: at least 12,000 feet AGL
Clouds: few clouds at 2500 feet AGL
Weather: no significant weather observed at this time

METAR text: KABQ 131152Z 18008KT 10SM FEW200 01/M04 A3013 RMK AO2 SLP190 T00111039 10056 20006 58004
Conditions at: KABQ (ALBUQUERQUE , NM, US) observed 1152 UTC 13 December 2019
Temperature: 1.1°C (34°F)
Dewpoint: -3.9°C (25°F) [RH = 69%]
Pressure (altimeter): 30.13 inches Hg (1020.4 mb)
[Sea-level pressure: 1019.0 mb]
Winds: from the S (180 degrees) at 9 MPH (8 knots; 4.1 m/s)
Visibility: 10 or more miles (16+ km)
Ceiling: at least 12,000 feet AGL
Clouds: few clouds at 20000 feet AGL
Weather: no significant weather observed at this time

METAR text: KABQ 131052Z 14005KT 10SM SCT220 BKN250 01/M04 A3014 RMK AO2 SLP190 T00111044
Conditions at: KABQ (ALBUQUERQUE , NM, US) observed 1052 UTC 13 December 2019
Temperature: 1.1°C (34°F)
Dewpoint: -4.4°C (24°F) [RH = 67%]
Pressure (altimeter): 30.14 inches Hg (1020.7 mb)
[Sea-level pressure: 1019.0 mb]
Winds: from the SE (140 degrees) at 6 MPH (5 knots; 2.6 m/s)
Visibility: 10 or more miles (16+ km)
Ceiling: 25000 feet AGL
Clouds: scattered clouds at 22000 feet AGL
broken clouds at 25000 feet AGL
Weather: no significant weather observed at this time

METAR text: KABQ 130952Z 08004KT 10SM FEW060 SCT250 01/M04 A3015 RMK AO2 SLP198 T00061044
Conditions at: KABQ (ALBUQUERQUE , NM, US) observed 0952 UTC 13 December 2019
Temperature: 0.6°C (33°F)
Dewpoint: -4.4°C (24°F) [RH = 69%]
Pressure (altimeter): 30.15 inches Hg (1021.1 mb)
[Sea-level pressure: 1019.8 mb]
Winds: from the E (80 degrees) at 5 MPH (4 knots; 2.1 m/s)
Visibility: 10 or more miles (16+ km)
Ceiling: at least 12,000 feet AGL
Clouds: few clouds at 6000 feet AGL
scattered clouds at 25000 feet AGL
Weather: no significant weather observed at this time

METAR text: KABQ 130852Z 17006KT 10SM FEW250 SCT300 02/M04 A3015 RMK AO2 SLP193 T00171044 55013
Conditions at: KABQ (ALBUQUERQUE , NM, US) observed 0852 UTC 13 December 2019
Temperature: 1.7°C (35°F)
Dewpoint: -4.4°C (24°F) [RH = 64%]
Pressure (altimeter): 30.15 inches Hg (1021.1 mb)
[Sea-level pressure: 1019.3 mb]
Winds: from the S (170 degrees) at 7 MPH (6 knots; 3.1 m/s)
Visibility: 10 or more miles (16+ km)
Ceiling: at least 12,000 feet AGL
Clouds: few clouds at 25000 feet AGL
scattered clouds at 30000 feet AGL
Weather: no significant weather observed at this time

METAR text: KABQ 130752Z 12007KT 10SM SCT250 BKN300 01/M04 A3014 RMK AO2 SLP199 T00061044
Conditions at: KABQ (ALBUQUERQUE , NM, US) observed 0752 UTC 13 December 2019
Temperature: 0.6°C (33°F)
Dewpoint: -4.4°C (24°F) [RH = 69%]
Pressure (altimeter): 30.14 inches Hg (1020.7 mb)
[Sea-level pressure: 1019.9 mb]
Winds: from the ESE (120 degrees) at 8 MPH (7 knots; 3.6 m/s)
Visibility: 10 or more miles (16+ km)
Ceiling: 30000 feet AGL
Clouds: scattered clouds at 25000 feet AGL
broken clouds at 30000 feet AGL
Weather: no significant weather observed at this time

METAR text: KABQ 130652Z 13004KT 10SM SCT250 02/M04 A3018 RMK AO2 SLP209 T00221044 401111033
Conditions at: KABQ (ALBUQUERQUE , NM, US) observed 0652 UTC 13 December 2019
Temperature: 2.2°C (36°F)
Dewpoint: -4.4°C (24°F) [RH = 62%]
Pressure (altimeter): 30.18 inches Hg (1022.1 mb)
[Sea-level pressure: 1020.9 mb]
Winds: from the SE (130 degrees) at 5 MPH (4 knots; 2.1 m/s)
Visibility: 10 or more miles (16+ km)
Ceiling: at least 12,000 feet AGL
Clouds: scattered clouds at 25000 feet AGL
Weather: no significant weather observed at this time

METAR text: KABQ 130552Z 01005KT 10SM BKN250 03/M04 A3019 RMK AO2 SLP219 T00331044 10094 20028 53002
Conditions at: KABQ (ALBUQUERQUE , NM, US) observed 0552 UTC 13 December 2019
Temperature: 3.3°C (38°F)
Dewpoint: -4.4°C (24°F) [RH = 57%]
Pressure (altimeter): 30.19 inches Hg (1022.4 mb)
[Sea-level pressure: 1021.9 mb]
Winds: from the N (10 degrees) at 6 MPH (5 knots; 2.6 m/s)
Visibility: 10 or more miles (16+ km)
Ceiling: 25000 feet AGL
Clouds: broken clouds at 25000 feet AGL
Weather: no significant weather observed at this time

METAR text: KABQ 130452Z 08005KT 10SM BKN250 03/M04 A3018 RMK AO2 SLP220 T00331044
Conditions at: KABQ (ALBUQUERQUE , NM, US) observed 0452 UTC 13 December 2019
Temperature: 3.3°C (38°F)
Dewpoint: -4.4°C (24°F) [RH = 57%]
Pressure (altimeter): 30.18 inches Hg (1022.1 mb)
[Sea-level pressure: 1022.0 mb]
Winds: from the E (80 degrees) at 6 MPH (5 knots; 2.6 m/s)
Visibility: 10 or more miles (16+ km)
Ceiling: 25000 feet AGL
Clouds: broken clouds at 25000 feet AGL
Weather: no significant weather observed at this time

METAR text: KABQ 130352Z 30005KT 10SM BKN250 06/M05 A3018 RMK AO2 SLP221 T00561050
Conditions at: KABQ (ALBUQUERQUE , NM, US) observed 0352 UTC 13 December 2019
Temperature: 5.6°C (42°F)
Dewpoint: -5.0°C (23°F) [RH = 46%]
Pressure (altimeter): 30.18 inches Hg (1022.1 mb)
[Sea-level pressure: 1022.1 mb]
Winds: from the WNW (300 degrees) at 6 MPH (5 knots; 2.6 m/s)
Visibility: 10 or more miles (16+ km)
Ceiling: 25000 feet AGL
Clouds: broken clouds at 25000 feet AGL
Weather: no significant weather observed at this time

METAR text: KABQ 130252Z 24005KT 10SM BKN260 06/M06 A3019 RMK AO2 SLP224 T00611056 50007
Conditions at: KABQ (ALBUQUERQUE , NM, US) observed 0252 UTC 13 December 2019
Temperature: 6.1°C (43°F)
Dewpoint: -5.6°C (22°F) [RH = 43%]
Pressure (altimeter): 30.19 inches Hg (1022.4 mb)
[Sea-level pressure: 1022.4 mb]
Winds: from the WSW (240 degrees) at 6 MPH (5 knots; 2.6 m/s)
Visibility: 10 or more miles (16+ km)
Ceiling: 26000 feet AGL
Clouds: broken clouds at 26000 feet AGL
Weather: no significant weather observed at this time

METAR text: KABQ 130152Z 34011G17KT 10SM BKN260 08/M06 A3019 RMK AO2 SLP219 T00831061
Conditions at: KABQ (ALBUQUERQUE , NM, US) observed 0152 UTC 13 December 2019
Temperature: 8.3°C (47°F)
Dewpoint: -6.1°C (21°F) [RH = 35%]
Pressure (altimeter): 30.19 inches Hg (1022.4 mb)
[Sea-level pressure: 1021.9 mb]
Winds: from the NNW (340 degrees) at 13 MPH (11 knots; 5.7 m/s)
gusting to 20 MPH (17 knots; 8.7 m/s)
Visibility: 10 or more miles (16+ km)
Ceiling: 26000 feet AGL
Clouds: broken clouds at 26000 feet AGL
Weather: no significant weather observed at this time

METAR text: KABQ 130052Z 26004KT 10SM SCT250 08/M06 A3018 RMK AO2 SLP218 T00831061
Conditions at: KABQ (ALBUQUERQUE , NM, US) observed 0052 UTC 13 December 2019
Temperature: 8.3°C (47°F)
Dewpoint: -6.1°C (21°F) [RH = 35%]
Pressure (altimeter): 30.18 inches Hg (1022.1 mb)
[Sea-level pressure: 1021.8 mb]
Winds: from the W (260 degrees) at 5 MPH (4 knots; 2.1 m/s)
Visibility: 10 or more miles (16+ km)
Ceiling: at least 12,000 feet AGL
Clouds: scattered clouds at 25000 feet AGL
Weather: no significant weather observed at this time

METAR text: KABQ 122352Z 00000KT 10SM FEW250 09/M06 A3016 RMK AO2 SLP204 T00941061 10111 20044 55002
Conditions at: KABQ (ALBUQUERQUE , NM, US) observed 2352 UTC 12 December 2019
Temperature: 9.4°C (49°F)
Dewpoint: -6.1°C (21°F) [RH = 33%]
Pressure (altimeter): 30.16 inches Hg (1021.4 mb)
[Sea-level pressure: 1020.4 mb]
Winds: calm
Visibility: 10 or more miles (16+ km)
Ceiling: at least 12,000 feet AGL
Clouds: few clouds at 25000 feet AGL
Weather: no significant weather observed at this time

METAR text: KABQ 122252Z 00000KT 10SM FEW250 11/M07 A3016 RMK AO2 SLP202 T01061067
Conditions at: KABQ (ALBUQUERQUE , NM, US) observed 2252 UTC 12 December 2019
Temperature: 10.6°C (51°F)
Dewpoint: -6.7°C (20°F) [RH = 29%]
Pressure (altimeter): 30.16 inches Hg (1021.4 mb)
[Sea-level pressure: 1020.2 mb]
Winds: calm
Visibility: 10 or more miles (16+ km)
Ceiling: at least 12,000 feet AGL
Clouds: few clouds at 25000 feet AGL
Weather: no significant weather observed at this time

METAR text: KABQ 122152Z 00000KT 10SM FEW250 10/M07 A3016 RMK AO2 SLP203 T01001067
Conditions at: KABQ (ALBUQUERQUE , NM, US) observed 2152 UTC 12 December 2019
Temperature: 10.0°C (50°F)
Dewpoint: -6.7°C (20°F) [RH = 30%]
Pressure (altimeter): 30.16 inches Hg (1021.4 mb)
[Sea-level pressure: 1020.3 mb]
Winds: calm
Visibility: 10 or more miles (16+ km)
Ceiling: at least 12,000 feet AGL
Clouds: few clouds at 25000 feet AGL
Weather: no significant weather observed at this time

METAR text: KABQ 122052Z 00000KT 10SM FEW060 FEW250 10/M07 A3017 RMK AO2 SLP205 T01001067 58029
Conditions at: KABQ (ALBUQUERQUE , NM, US) observed 2052 UTC 12 December 2019
Temperature: 10.0°C (50°F)
Dewpoint: -6.7°C (20°F) [RH = 30%]
Pressure (altimeter): 30.17 inches Hg (1021.8 mb)
[Sea-level pressure: 1020.5 mb]
Winds: calm
Visibility: 10 or more miles (16+ km)
Ceiling: at least 12,000 feet AGL
Clouds: few clouds at 6000 feet AGL
few clouds at 25000 feet AGL
Weather: no significant weather observed at this time

METAR text: KABQ 121952Z 00000KT 10SM FEW250 08/M06 A3020 RMK AO2 SLP220 T00831056
Conditions at: KABQ (ALBUQUERQUE , NM, US) observed 1952 UTC 12 December 2019
Temperature: 8.3°C (47°F)
Dewpoint: -5.6°C (22°F) [RH = 37%]
Pressure (altimeter): 30.20 inches Hg (1022.8 mb)
[Sea-level pressure: 1022.0 mb]
Winds: calm
Visibility: 10 or more miles (16+ km)
Ceiling: at least 12,000 feet AGL
Clouds: few clouds at 25000 feet AGL
Weather: no significant weather observed at this time

METAR text: KABQ 121852Z 23004KT 10SM FEW250 07/M03 A3024 RMK AO2 SLP231 T00721033
Conditions at: KABQ (ALBUQUERQUE , NM, US) observed 1852 UTC 12 December 2019
Temperature: 7.2°C (45°F)
Dewpoint: -3.3°C (26°F) [RH = 47%]
Pressure (altimeter): 30.24 inches Hg (1024.1 mb)
[Sea-level pressure: 1023.1 mb]
Winds: from the SW (230 degrees) at 5 MPH (4 knots; 2.1 m/s)
Visibility: 10 or more miles (16+ km)
Ceiling: at least 12,000 feet AGL
Clouds: few clouds at 25000 feet AGL
Weather: no significant weather observed at this time

METAR text: KABQ 121752Z 25003KT 10SM FEW200 SCT250 04/00 A3027 RMK AO2 SLP251 I6000 T00440000 10050 21033 50002
Conditions at: KABQ (ALBUQUERQUE , NM, US) observed 1752 UTC 12 December 2019
Temperature: 4.4°C (40°F)
Dewpoint: 0.0°C (32°F) [RH = 73%]
Pressure (altimeter): 30.27 inches Hg (1025.1 mb)
[Sea-level pressure: 1025.1 mb]
Winds: from the WSW (250 degrees) at 3 MPH (3 knots; 1.5 m/s)
Visibility: 10 or more miles (16+ km)
Ceiling: at least 12,000 feet AGL
Clouds: few clouds at 20000 feet AGL
scattered clouds at 25000 feet AGL
Weather: no significant weather observed at this time

METAR text: KABQ 121652Z 19003KT 10SM FEW230 BKN300 02/01 A3029 RMK AO2 SLP259 T00220011
Conditions at: KABQ (ALBUQUERQUE , NM, US) observed 1652 UTC 12 December 2019
Temperature: 2.2°C (36°F)
Dewpoint: 1.1°C (34°F) [RH = 92%]
Pressure (altimeter): 30.29 inches Hg (1025.8 mb)
[Sea-level pressure: 1025.9 mb]
Winds: from the S (190 degrees) at 3 MPH (3 knots; 1.5 m/s)
Visibility: 10 or more miles (16+ km)
Ceiling: 30000 feet AGL
Clouds: few clouds at 23000 feet AGL
broken clouds at 30000 feet AGL
Weather: no significant weather observed at this time

METAR text: KABQ 121552Z 00000KT 6SM BR FEW000 FEW020 BKN250 M01/M01 A3028 RMK AO2 SLP264 FZFG FEW000 MTNS OBSC SE T10061011
Conditions at: KABQ (ALBUQUERQUE , NM, US) observed 1552 UTC 12 December 2019
Temperature: -0.6°C (31°F)
Dewpoint: -1.1°C (30°F) [RH = 96%]
Pressure (altimeter): 30.28 inches Hg (1025.5 mb)
[Sea-level pressure: 1026.4 mb]
Winds: calm
Visibility: 6 miles (10 km)
Ceiling: 25000 feet AGL
Clouds: few clouds at 0 feet AGL
few clouds at 2000 feet AGL
broken clouds at 25000 feet AGL
Weather: BR  (mist)

METAR text: KABQ 121506Z 00000KT 4SM BR FEW000 FEW200 BKN250 M02/M02 A3026 RMK AO2 VIS SE-SW 1/4 W 1/2 FZFG FEW000 T10221022
Conditions at: KABQ (ALBUQUERQUE , NM, US) observed 1506 UTC 12 December 2019
Temperature: -2.2°C (28°F)
Dewpoint: -2.2°C (28°F) [RH = 100%]
Pressure (altimeter): 30.26 inches Hg (1024.8 mb)
Winds: calm
Visibility: 4 miles ( 6 km)
Ceiling: 25000 feet AGL
Clouds: few clouds at 0 feet AGL
few clouds at 20000 feet AGL
broken clouds at 25000 feet AGL
Weather: BR  (mist)

METAR text: KABQ 121452Z 00000KT 6SM BR FEW000 BKN250 M02/M02 A3026 RMK AO2 SLP263 VIS E-S 1/4 FZFG FEW000 I1000 I3000 T10221022 51015
Conditions at: KABQ (ALBUQUERQUE , NM, US) observed 1452 UTC 12 December 2019
Temperature: -2.2°C (28°F)
Dewpoint: -2.2°C (28°F) [RH = 100%]
Pressure (altimeter): 30.26 inches Hg (1024.8 mb)
[Sea-level pressure: 1026.3 mb]
Winds: calm
Visibility: 6 miles (10 km)
Ceiling: 25000 feet AGL
Clouds: few clouds at 0 feet AGL
broken clouds at 25000 feet AGL
Weather: BR  (mist)

METAR text: KABQ 121444Z 11003KT 6SM BR FEW000 BKN250 M02/M03 A3026 RMK AO2 VIS SE-SW 1/8 FZFG FEW000 I1000 T10171028
Conditions at: KABQ (ALBUQUERQUE , NM, US) observed 1444 UTC 12 December 2019
Temperature: -1.7°C (29°F)
Dewpoint: -2.8°C (27°F) [RH = 92%]
Pressure (altimeter): 30.26 inches Hg (1024.8 mb)
Winds: from the ESE (110 degrees) at 3 MPH (3 knots; 1.5 m/s)
Visibility: 6 miles (10 km)
Ceiling: 25000 feet AGL
Clouds: few clouds at 0 feet AGL
broken clouds at 25000 feet AGL
Weather: BR  (mist)

METAR text: KABQ 121439Z 10003KT 3/4SM BR SCT000 SCT010 BKN230 M02/M03 A3025 RMK AO2 TWR VIS 10 VIS N-E-SE 1/4 FZFG SCT000 I1000 T10221033
Conditions at: KABQ (ALBUQUERQUE , NM, US) observed 1439 UTC 12 December 2019
Temperature: -2.2°C (28°F)
Dewpoint: -3.3°C (26°F) [RH = 92%]
Pressure (altimeter): 30.25 inches Hg (1024.5 mb)
Winds: from the E (100 degrees) at 3 MPH (3 knots; 1.5 m/s)
Visibility: 0.75 miles (1.21 km)
Ceiling: 23000 feet AGL
Clouds: scattered clouds at 0 feet AGL
scattered clouds at 1000 feet AGL
broken clouds at 23000 feet AGL
Weather: BR  (mist)

METAR text: KABQ 121432Z 00000KT 1/4SM FZFG SCT000 SCT015 BKN230 M02/M03 A3025 RMK AO2 VIS 1/4V3 FZFG SCT000 I1000 T10221033
Conditions at: KABQ (ALBUQUERQUE , NM, US) observed 1432 UTC 12 December 2019
Temperature: -2.2°C (28°F)
Dewpoint: -3.3°C (26°F) [RH = 92%]
Pressure (altimeter): 30.25 inches Hg (1024.5 mb)
Winds: calm
Visibility: 0.25 miles (0.40 km)
Ceiling: 23000 feet AGL
Clouds: scattered clouds at 0 feet AGL
scattered clouds at 1500 feet AGL
broken clouds at 23000 feet AGL
Weather: FZFG  (freezing fog)

METAR text: KABQ 121428Z 00000KT 1 1/4SM BR SCT000 SCT230 M02/M03 A3025 RMK AO2 FZFG SCT000 I1000 T10171033
Conditions at: KABQ (ALBUQUERQUE , NM, US) observed 1428 UTC 12 December 2019
Temperature: -1.7°C (29°F)
Dewpoint: -3.3°C (26°F) [RH = 89%]
Pressure (altimeter): 30.25 inches Hg (1024.5 mb)
Winds: calm
Visibility: 1.25 miles (2.01 km)
Ceiling: at least 12,000 feet AGL
Clouds: scattered clouds at 0 feet AGL
scattered clouds at 23000 feet AGL
Weather: BR  (mist)

METAR text: KABQ 121352Z 00000KT 7SM FEW000 FEW230 M02/M03 A3025 RMK AO2 SLP253 FZFG FEW000 I1000 T10171033
Conditions at: KABQ (ALBUQUERQUE , NM, US) observed 1352 UTC 12 December 2019
Temperature: -1.7°C (29°F)
Dewpoint: -3.3°C (26°F) [RH = 89%]
Pressure (altimeter): 30.25 inches Hg (1024.5 mb)
[Sea-level pressure: 1025.3 mb]
Winds: calm
Visibility: 7 miles (11 km)
Ceiling: at least 12,000 feet AGL
Clouds: few clouds at 0 feet AGL
few clouds at 23000 feet AGL
Weather: no significant weather observed at this time

METAR text: KABQ 121252Z 00000KT 8SM FEW000 FEW002 M02/M04 A3023 RMK AO2 SLP246 FZFG FEW000 T10171039
Conditions at: KABQ (ALBUQUERQUE , NM, US) observed 1252 UTC 12 December 2019
Temperature: -1.7°C (29°F)
Dewpoint: -3.9°C (25°F) [RH = 85%]
Pressure (altimeter): 30.23 inches Hg (1023.8 mb)
[Sea-level pressure: 1024.6 mb]
Winds: calm
Visibility: 8 miles (13 km)
Ceiling: at least 12,000 feet AGL
Clouds: few clouds at 0 feet AGL
few clouds at 200 feet AGL
Weather: no significant weather observed at this time

METAR text: KABQ 121224Z 00000KT 8SM FEW000 FEW002 M01/M02 A3022 RMK AO2 FZFG FEW000 T10111022
Conditions at: KABQ (ALBUQUERQUE , NM, US) observed 1224 UTC 12 December 2019
Temperature: -1.1°C (30°F)
Dewpoint: -2.2°C (28°F) [RH = 92%]
Pressure (altimeter): 30.22 inches Hg (1023.5 mb)
Winds: calm
Visibility: 8 miles (13 km)
Ceiling: at least 12,000 feet AGL
Clouds: few clouds at 0 feet AGL
few clouds at 200 feet AGL
Weather: no significant weather observed at this time

METAR text: KABQ 121152Z 36003KT 8SM FEW001 FEW005 M01/M01 A3021 RMK AO2 SLP230 MTNS OBSC E I1000 I6000 T10061011 10017 21022 50000
Conditions at: KABQ (ALBUQUERQUE , NM, US) observed 1152 UTC 12 December 2019
Temperature: -0.6°C (31°F)
Dewpoint: -1.1°C (30°F) [RH = 96%]
Pressure (altimeter): 30.21 inches Hg (1023.1 mb)
[Sea-level pressure: 1023.0 mb]
Winds: from the N (360 degrees) at 3 MPH (3 knots; 1.5 m/s)
Visibility: 8 miles (13 km)
Ceiling: at least 12,000 feet AGL
Clouds: few clouds at 100 feet AGL
few clouds at 500 feet AGL
Weather: no significant weather observed at this time

METAR text: KABQ 121052Z 00000KT 8SM FEW002 FEW010 M01/M03 A3021 RMK AO2 SLP231 MTNS OBSC E T10111028
Conditions at: KABQ (ALBUQUERQUE , NM, US) observed 1052 UTC 12 December 2019
Temperature: -1.1°C (30°F)
Dewpoint: -2.8°C (27°F) [RH = 88%]
Pressure (altimeter): 30.21 inches Hg (1023.1 mb)
[Sea-level pressure: 1023.1 mb]
Winds: calm
Visibility: 8 miles (13 km)
Ceiling: at least 12,000 feet AGL
Clouds: few clouds at 200 feet AGL
few clouds at 1000 feet AGL
Weather: no significant weather observed at this time

METAR text: KABQ 120952Z 00000KT 8SM FEW009 FEW015 M01/M02 A3021 RMK AO2 SLP228 MTNS OBSC E T10061022
Conditions at: KABQ (ALBUQUERQUE , NM, US) observed 0952 UTC 12 December 2019
Temperature: -0.6°C (31°F)
Dewpoint: -2.2°C (28°F) [RH = 89%]
Pressure (altimeter): 30.21 inches Hg (1023.1 mb)
[Sea-level pressure: 1022.8 mb]
Winds: calm
Visibility: 8 miles (13 km)
Ceiling: at least 12,000 feet AGL
Clouds: few clouds at 900 feet AGL
few clouds at 1500 feet AGL
Weather: no significant weather observed at this time

METAR text: KABQ 120937Z 00000KT 8SM FEW009 FEW020 M01/M03 A3021 RMK AO2 MTNS OBSC E T10061028
Conditions at: KABQ (ALBUQUERQUE , NM, US) observed 0937 UTC 12 December 2019
Temperature: -0.6°C (31°F)
Dewpoint: -2.8°C (27°F) [RH = 85%]
Pressure (altimeter): 30.21 inches Hg (1023.1 mb)
Winds: calm
Visibility: 8 miles (13 km)
Ceiling: at least 12,000 feet AGL
Clouds: few clouds at 900 feet AGL
few clouds at 2000 feet AGL
Weather: no significant weather observed at this time

METAR text: KABQ 120852Z 11004KT 8SM FEW010 FEW040 M01/M02 A3021 RMK AO2 SLP230 T10061022 58002
Conditions at: KABQ (ALBUQUERQUE , NM, US) observed 0852 UTC 12 December 2019
Temperature: -0.6°C (31°F)
Dewpoint: -2.2°C (28°F) [RH = 89%]
Pressure (altimeter): 30.21 inches Hg (1023.1 mb)
[Sea-level pressure: 1023.0 mb]
Winds: from the ESE (110 degrees) at 5 MPH (4 knots; 2.1 m/s)
Visibility: 8 miles (13 km)
Ceiling: at least 12,000 feet AGL
Clouds: few clouds at 1000 feet AGL
few clouds at 4000 feet AGL
Weather: no significant weather observed at this time

METAR text: KABQ 120752Z 00000KT 10SM FEW050 SCT210 00/M02 A3022 RMK AO2 SLP230 MTN TOPS OBSC NE T00001017
Conditions at: KABQ (ALBUQUERQUE , NM, US) observed 0752 UTC 12 December 2019
Temperature: 0.0°C (32°F)
Dewpoint: -1.7°C (29°F) [RH = 88%]
Pressure (altimeter): 30.22 inches Hg (1023.5 mb)
[Sea-level pressure: 1023.0 mb]
Winds: calm
Visibility: 10 or more miles (16+ km)
Ceiling: at least 12,000 feet AGL
Clouds: few clouds at 5000 feet AGL
scattered clouds at 21000 feet AGL
Weather: no significant weather observed at this time

METAR text: KABQ 120652Z 00000KT 10SM FEW060 SCT200 02/M01 A3021 RMK AO2 SLP229 T00171006 400671028
Conditions at: KABQ (ALBUQUERQUE , NM, US) observed 0652 UTC 12 December 2019
Temperature: 1.7°C (35°F)
Dewpoint: -0.6°C (31°F) [RH = 85%]
Pressure (altimeter): 30.21 inches Hg (1023.1 mb)
[Sea-level pressure: 1022.9 mb]
Winds: calm
Visibility: 10 or more miles (16+ km)
Ceiling: at least 12,000 feet AGL
Clouds: few clouds at 6000 feet AGL
scattered clouds at 20000 feet AGL
Weather: no significant weather observed at this time

METAR text: KABQ 120552Z 13006KT 10SM FEW060 FEW200 01/M02 A3022 RMK AO2 SLP235 T00061017 10056 20006 51009
Conditions at: KABQ (ALBUQUERQUE , NM, US) observed 0552 UTC 12 December 2019
Temperature: 0.6°C (33°F)
Dewpoint: -1.7°C (29°F) [RH = 85%]
Pressure (altimeter): 30.22 inches Hg (1023.5 mb)
[Sea-level pressure: 1023.5 mb]
Winds: from the SE (130 degrees) at 7 MPH (6 knots; 3.1 m/s)
Visibility: 10 or more miles (16+ km)
Ceiling: at least 12,000 feet AGL
Clouds: few clouds at 6000 feet AGL
few clouds at 20000 feet AGL
Weather: no significant weather observed at this time

METAR text: KABQ 120452Z 10006KT 10SM FEW060 FEW200 02/M01 A3021 RMK AO2 SLP233 T00221011
Conditions at: KABQ (ALBUQUERQUE , NM, US) observed 0452 UTC 12 December 2019
Temperature: 2.2°C (36°F)
Dewpoint: -1.1°C (30°F) [RH = 79%]
Pressure (altimeter): 30.21 inches Hg (1023.1 mb)
[Sea-level pressure: 1023.3 mb]
Winds: from the E (100 degrees) at 7 MPH (6 knots; 3.1 m/s)
Visibility: 10 or more miles (16+ km)
Ceiling: at least 12,000 feet AGL
Clouds: few clouds at 6000 feet AGL
few clouds at 20000 feet AGL
Weather: no significant weather observed at this time

METAR text: KABQ 120352Z 10006KT 10SM FEW250 02/M01 A3020 RMK AO2 SLP233 T00221011
Conditions at: KABQ (ALBUQUERQUE , NM, US) observed 0352 UTC 12 December 2019
Temperature: 2.2°C (36°F)
Dewpoint: -1.1°C (30°F) [RH = 79%]
Pressure (altimeter): 30.20 inches Hg (1022.8 mb)
[Sea-level pressure: 1023.3 mb]
Winds: from the E (100 degrees) at 7 MPH (6 knots; 3.1 m/s)
Visibility: 10 or more miles (16+ km)
Ceiling: at least 12,000 feet AGL
Clouds: few clouds at 25000 feet AGL
Weather: no significant weather observed at this time

METAR text: KABQ 120252Z 10006KT 10SM FEW250 01/M01 A3019 RMK AO2 SLP234 T00111011 58002
Conditions at: KABQ (ALBUQUERQUE , NM, US) observed 0252 UTC 12 December 2019
Temperature: 1.1°C (34°F)
Dewpoint: -1.1°C (30°F) [RH = 85%]
Pressure (altimeter): 30.19 inches Hg (1022.4 mb)
[Sea-level pressure: 1023.4 mb]
Winds: from the E (100 degrees) at 7 MPH (6 knots; 3.1 m/s)
Visibility: 10 or more miles (16+ km)
Ceiling: at least 12,000 feet AGL
Clouds: few clouds at 25000 feet AGL
Weather: no significant weather observed at this time

METAR text: KABQ 120152Z COR 10003KT 10SM SCT250 03/M01 A3020 RMK AO2 SLP234 T00281006
Conditions at: KABQ (ALBUQUERQUE , NM, US) observed 0152 UTC 12 December 2019
Temperature: 2.8°C (37°F)
Dewpoint: -0.6°C (31°F) [RH = 78%]
Pressure (altimeter): 30.20 inches Hg (1022.8 mb)
[Sea-level pressure: 1023.4 mb]
Winds: from the E (100 degrees) at 3 MPH (3 knots; 1.5 m/s)
Visibility: 10 or more miles (16+ km)
Ceiling: at least 12,000 feet AGL
Clouds: scattered clouds at 25000 feet AGL
Weather: no significant weather observed at this time

Forecast for: KABQ (ALBUQUERQUE , NM, US)
Text: KABQ 131132Z 1312/1412 15005KT P6SM FEW250
Forecast period: 1200 to 1800 UTC 13 December 2019
Forecast type: FROM: standard forecast or significant change
Winds: from the SSE (150 degrees) at 6 MPH (5 knots; 2.6 m/s)
Visibility: 6 or more miles 10+ km)
Ceiling: at least 12,000 feet AGL
Clouds: few clouds at 25000 feet AGL
Weather: no significant weather forecast for this period
Text: FM131800 30015G23KT P6SM SCT100
Forecast period: 1800 UTC 13 December 2019 to 0100 UTC 14 December 2019
Forecast type: FROM: standard forecast or significant change
Winds: from the WNW (300 degrees) at 17 MPH (15 knots; 7.7 m/s)
gusting to 26 MPH (23 knots; 11.8 m/s)
Visibility: 6 or more miles 10+ km)
Ceiling: at least 12,000 feet AGL
Clouds: scattered clouds at 10000 feet AGL
Weather: no significant weather forecast for this period
Text: FM140100 35010KT P6SM SCT100
Forecast period: 0100 to 1200 UTC 14 December 2019
Forecast type: FROM: standard forecast or significant change
Winds: from the N (350 degrees) at 12 MPH (10 knots; 5.1 m/s)
Visibility: 6 or more miles 10+ km)
Ceiling: at least 12,000 feet AGL
Clouds: scattered clouds at 10000 feet AGL
Weather: no significant weather forecast for this period